sensor_id;sensor_type;location;lat;lon;timestamp;P1;durP1;ratioP1;P2;durP2;ratioP2
30515;SDS011;17297;54.022;10.760;2023-02-13T00:02:12;5.90;;;4.03;;
30515;SDS011;17297;54.022;10.760;2023-02-13T00:04:39;6.93;;;4.78;;
30515;SDS011;17297;54.022;10.760;2023-02-13T00:07:06;7.13;;;4.25;;
30515;SDS011;17297;54.022;10.760;2023-02-13T00:09:32;5.60;;;3.95;;
30515;SDS011;17297;54.022;10.760;2023-02-13T00:11:58;5.82;;;3.88;;
30515;SDS011;17297;54.022;10.760;2023-02-13T00:14:23;6.43;;;4.40;;
30515;SDS011;17297;54.022;10.760;2023-02-13T00:16:51;6.35;;;4.07;;
30515;SDS011;17297;54.022;10.760;2023-02-13T00:19:16;6.60;;;4.57;;
30515;SDS011;17297;54.022;10.760;2023-02-13T00:21:42;8.43;;;4.43;;
30515;SDS011;17297;54.022;10.760;2023-02-13T00:24:07;5.70;;;4.20;;
30515;SDS011;17297;54.022;10.760;2023-02-13T00:26:33;6.47;;;4.18;;
30515;SDS011;17297;54.022;10.760;2023-02-13T00:28:58;5.90;;;4.25;;
30515;SDS011;17297;54.022;10.760;2023-02-13T00:31:23;4.93;;;3.85;;
30515;SDS011;17297;54.022;10.760;2023-02-13T00:33:49;6.07;;;4.40;;
30515;SDS011;17297;54.022;10.760;2023-02-13T00:36:15;7.97;;;4.07;;
30515;SDS011;17297;54.022;10.760;2023-02-13T00:38:43;6.28;;;4.47;;
30515;SDS011;17297;54.022;10.760;2023-02-13T00:41:10;6.82;;;4.00;;
30515;SDS011;17297;54.022;10.760;2023-02-13T00:43:37;5.65;;;4.15;;
30515;SDS011;17297;54.022;10.760;2023-02-13T00:46:02;6.70;;;4.50;;
30515;SDS011;17297;54.022;10.760;2023-02-13T00:48:29;6.90;;;4.45;;
30515;SDS011;17297;54.022;10.760;2023-02-13T00:50:56;6.85;;;4.45;;
30515;SDS011;17297;54.022;10.760;2023-02-13T00:53:22;8.23;;;4.95;;
30515;SDS011;17297;54.022;10.760;2023-02-13T00:55:49;5.57;;;4.55;;
30515;SDS011;17297;54.022;10.760;2023-02-13T00:58:15;6.70;;;4.82;;
30515;SDS011;17297;54.022;10.760;2023-02-13T01:00:41;7.97;;;4.93;;
30515;SDS011;17297;54.022;10.760;2023-02-13T01:03:07;8.43;;;4.90;;
30515;SDS011;17297;54.022;10.760;2023-02-13T01:05:32;8.10;;;4.57;;
30515;SDS011;17297;54.022;10.760;2023-02-13T01:07:58;7.10;;;5.10;;
30515;SDS011;17297;54.022;10.760;2023-02-13T01:10:24;7.68;;;4.57;;
30515;SDS011;17297;54.022;10.760;2023-02-13T01:12:50;8.00;;;5.15;;
30515;SDS011;17297;54.022;10.760;2023-02-13T01:15:15;7.18;;;5.30;;
30515;SDS011;17297;54.022;10.760;2023-02-13T01:17:41;6.85;;;4.95;;
30515;SDS011;17297;54.022;10.760;2023-02-13T01:20:07;7.82;;;5.25;;
30515;SDS011;17297;54.022;10.760;2023-02-13T01:22:33;8.20;;;5.65;;
30515;SDS011;17297;54.022;10.760;2023-02-13T01:24:59;9.77;;;5.18;;
30515;SDS011;17297;54.022;10.760;2023-02-13T01:27:28;7.45;;;4.97;;
30515;SDS011;17297;54.022;10.760;2023-02-13T01:29:54;7.68;;;5.50;;
30515;SDS011;17297;54.022;10.760;2023-02-13T01:32:20;6.13;;;4.22;;
30515;SDS011;17297;54.022;10.760;2023-02-13T01:34:46;7.60;;;5.63;;
30515;SDS011;17297;54.022;10.760;2023-02-13T01:37:11;7.25;;;5.07;;
30515;SDS011;17297;54.022;10.760;2023-02-13T01:39:37;6.90;;;5.75;;
30515;SDS011;17297;54.022;10.760;2023-02-13T01:42:03;8.15;;;5.10;;
30515;SDS011;17297;54.022;10.760;2023-02-13T01:44:48;7.28;;;5.55;;
30515;SDS011;17297;54.022;10.760;2023-02-13T01:53:05;8.35;;;5.13;;
30515;SDS011;17297;54.022;10.760;2023-02-13T01:55:34;8.18;;;5.25;;
30515;SDS011;17297;54.022;10.760;2023-02-13T01:58:08;5.25;;;4.40;;
30515;SDS011;17297;54.022;10.760;2023-02-13T02:00:37;7.55;;;5.07;;
30515;SDS011;17297;54.022;10.760;2023-02-13T02:03:07;5.75;;;4.10;;
30515;SDS011;17297;54.022;10.760;2023-02-13T02:05:37;8.20;;;4.38;;
30515;SDS011;17297;54.022;10.760;2023-02-13T02:08:03;7.80;;;5.00;;
30515;SDS011;17297;54.022;10.760;2023-02-13T02:10:35;5.88;;;4.50;;
30515;SDS011;17297;54.022;10.760;2023-02-13T02:13:13;5.75;;;4.82;;
30515;SDS011;17297;54.022;10.760;2023-02-13T02:15:42;5.85;;;3.88;;
30515;SDS011;17297;54.022;10.760;2023-02-13T02:18:19;7.93;;;4.63;;
30515;SDS011;17297;54.022;10.760;2023-02-13T02:29:23;6.68;;;4.20;;
30515;SDS011;17297;54.022;10.760;2023-02-13T02:31:59;5.15;;;4.35;;
30515;SDS011;17297;54.022;10.760;2023-02-13T02:34:45;5.18;;;4.05;;
30515;SDS011;17297;54.022;10.760;2023-02-13T02:45:38;7.72;;;5.15;;
30515;SDS011;17297;54.022;10.760;2023-02-13T02:51:15;7.45;;;4.80;;
30515;SDS011;17297;54.022;10.760;2023-02-13T02:54:00;6.32;;;4.93;;
30515;SDS011;17297;54.022;10.760;2023-02-13T02:56:52;5.65;;;4.47;;
30515;SDS011;17297;54.022;10.760;2023-02-13T02:59:24;7.43;;;4.40;;
30515;SDS011;17297;54.022;10.760;2023-02-13T03:02:11;11.27;;;5.07;;
30515;SDS011;17297;54.022;10.760;2023-02-13T03:04:55;5.57;;;4.38;;
30515;SDS011;17297;54.022;10.760;2023-02-13T03:07:43;8.68;;;5.07;;
30515;SDS011;17297;54.022;10.760;2023-02-13T03:10:10;9.02;;;4.93;;
30515;SDS011;17297;54.022;10.760;2023-02-13T03:13:00;5.55;;;4.18;;
30515;SDS011;17297;54.022;10.760;2023-02-13T03:15:48;5.70;;;4.03;;
30515;SDS011;17297;54.022;10.760;2023-02-13T03:18:35;6.03;;;4.55;;
30515;SDS011;17297;54.022;10.760;2023-02-13T03:24:35;7.18;;;4.60;;
30515;SDS011;17297;54.022;10.760;2023-02-13T03:27:21;5.53;;;4.25;;
30515;SDS011;17297;54.022;10.760;2023-02-13T03:35:49;6.82;;;4.20;;
30515;SDS011;17297;54.022;10.760;2023-02-13T03:38:59;7.82;;;4.93;;
30515;SDS011;17297;54.022;10.760;2023-02-13T03:47:10;6.18;;;4.03;;
30515;SDS011;17297;54.022;10.760;2023-02-13T03:49:42;6.25;;;4.50;;
30515;SDS011;17297;54.022;10.760;2023-02-13T03:55:21;6.57;;;5.20;;
30515;SDS011;17297;54.022;10.760;2023-02-13T03:58:13;7.82;;;4.85;;
30515;SDS011;17297;54.022;10.760;2023-02-13T04:01:00;6.32;;;4.57;;
30515;SDS011;17297;54.022;10.760;2023-02-13T04:06:18;6.35;;;4.35;;
30515;SDS011;17297;54.022;10.760;2023-02-13T04:08:47;6.63;;;4.32;;
30515;SDS011;17297;54.022;10.760;2023-02-13T04:13:42;7.07;;;4.72;;
30515;SDS011;17297;54.022;10.760;2023-02-13T04:16:17;5.93;;;4.15;;
30515;SDS011;17297;54.022;10.760;2023-02-13T04:18:54;7.55;;;4.88;;
30515;SDS011;17297;54.022;10.760;2023-02-13T04:21:21;7.07;;;4.10;;
30515;SDS011;17297;54.022;10.760;2023-02-13T04:23:46;6.40;;;4.40;;
30515;SDS011;17297;54.022;10.760;2023-02-13T04:26:16;6.78;;;4.47;;
30515;SDS011;17297;54.022;10.760;2023-02-13T04:28:44;5.45;;;3.92;;
30515;SDS011;17297;54.022;10.760;2023-02-13T04:31:10;7.40;;;4.47;;
30515;SDS011;17297;54.022;10.760;2023-02-13T04:33:35;4.32;;;3.50;;
30515;SDS011;17297;54.022;10.760;2023-02-13T04:36:01;5.93;;;3.80;;
30515;SDS011;17297;54.022;10.760;2023-02-13T04:38:26;6.47;;;4.72;;
30515;SDS011;17297;54.022;10.760;2023-02-13T04:40:51;7.35;;;4.40;;
30515;SDS011;17297;54.022;10.760;2023-02-13T04:43:17;5.85;;;4.05;;
30515;SDS011;17297;54.022;10.760;2023-02-13T04:45:42;6.55;;;4.20;;
30515;SDS011;17297;54.022;10.760;2023-02-13T04:48:08;6.50;;;3.63;;
30515;SDS011;17297;54.022;10.760;2023-02-13T04:50:33;5.32;;;4.18;;
30515;SDS011;17297;54.022;10.760;2023-02-13T04:52:59;5.82;;;3.63;;
30515;SDS011;17297;54.022;10.760;2023-02-13T04:55:25;5.97;;;4.03;;
30515;SDS011;17297;54.022;10.760;2023-02-13T04:57:52;5.45;;;4.03;;
30515;SDS011;17297;54.022;10.760;2023-02-13T05:00:19;5.25;;;3.58;;
30515;SDS011;17297;54.022;10.760;2023-02-13T05:02:45;4.88;;;3.30;;
30515;SDS011;17297;54.022;10.760;2023-02-13T05:05:11;7.45;;;4.78;;
30515;SDS011;17297;54.022;10.760;2023-02-13T05:07:36;4.38;;;3.60;;
30515;SDS011;17297;54.022;10.760;2023-02-13T05:10:01;5.80;;;3.80;;
30515;SDS011;17297;54.022;10.760;2023-02-13T05:12:27;5.50;;;4.20;;
30515;SDS011;17297;54.022;10.760;2023-02-13T05:14:52;6.68;;;4.13;;
30515;SDS011;17297;54.022;10.760;2023-02-13T05:17:20;6.55;;;4.35;;
30515;SDS011;17297;54.022;10.760;2023-02-13T05:19:45;5.93;;;4.15;;
30515;SDS011;17297;54.022;10.760;2023-02-13T05:22:11;5.70;;;4.13;;
30515;SDS011;17297;54.022;10.760;2023-02-13T05:24:55;5.47;;;4.00;;
30515;SDS011;17297;54.022;10.760;2023-02-13T05:27:20;5.88;;;4.38;;
30515;SDS011;17297;54.022;10.760;2023-02-13T05:29:45;6.60;;;5.00;;
30515;SDS011;17297;54.022;10.760;2023-02-13T05:32:11;5.35;;;4.05;;
30515;SDS011;17297;54.022;10.760;2023-02-13T05:34:36;5.05;;;3.95;;
30515;SDS011;17297;54.022;10.760;2023-02-13T05:37:02;5.43;;;3.92;;
30515;SDS011;17297;54.022;10.760;2023-02-13T05:39:27;6.30;;;3.70;;
30515;SDS011;17297;54.022;10.760;2023-02-13T05:41:52;7.22;;;5.28;;
30515;SDS011;17297;54.022;10.760;2023-02-13T05:44:18;6.65;;;4.90;;
30515;SDS011;17297;54.022;10.760;2023-02-13T05:46:43;6.57;;;4.80;;
30515;SDS011;17297;54.022;10.760;2023-02-13T05:49:10;6.07;;;4.38;;
30515;SDS011;17297;54.022;10.760;2023-02-13T05:51:45;6.05;;;4.40;;
30515;SDS011;17297;54.022;10.760;2023-02-13T05:54:11;7.13;;;5.45;;
30515;SDS011;17297;54.022;10.760;2023-02-13T05:56:37;7.22;;;4.57;;
30515;SDS011;17297;54.022;10.760;2023-02-13T05:59:02;7.32;;;5.10;;
30515;SDS011;17297;54.022;10.760;2023-02-13T06:01:28;6.15;;;4.90;;
30515;SDS011;17297;54.022;10.760;2023-02-13T06:03:53;7.57;;;4.93;;
30515;SDS011;17297;54.022;10.760;2023-02-13T06:06:19;12.45;;;5.07;;
30515;SDS011;17297;54.022;10.760;2023-02-13T06:08:45;7.90;;;5.22;;
30515;SDS011;17297;54.022;10.760;2023-02-13T06:11:10;7.57;;;5.22;;
30515;SDS011;17297;54.022;10.760;2023-02-13T06:13:37;8.40;;;4.85;;
30515;SDS011;17297;54.022;10.760;2023-02-13T06:16:05;7.07;;;4.85;;
30515;SDS011;17297;54.022;10.760;2023-02-13T06:18:34;7.53;;;5.40;;
30515;SDS011;17297;54.022;10.760;2023-02-13T06:21:00;8.82;;;6.18;;
30515;SDS011;17297;54.022;10.760;2023-02-13T06:23:26;6.88;;;4.97;;
30515;SDS011;17297;54.022;10.760;2023-02-13T06:25:51;6.72;;;4.57;;
30515;SDS011;17297;54.022;10.760;2023-02-13T06:28:16;8.68;;;5.68;;
30515;SDS011;17297;54.022;10.760;2023-02-13T06:30:42;7.47;;;5.40;;
30515;SDS011;17297;54.022;10.760;2023-02-13T06:33:07;5.43;;;4.38;;
30515;SDS011;17297;54.022;10.760;2023-02-13T06:35:32;6.53;;;5.15;;
30515;SDS011;17297;54.022;10.760;2023-02-13T06:37:58;7.75;;;5.60;;
30515;SDS011;17297;54.022;10.760;2023-02-13T06:40:23;8.07;;;5.30;;
30515;SDS011;17297;54.022;10.760;2023-02-13T06:42:48;6.63;;;5.05;;
30515;SDS011;17297;54.022;10.760;2023-02-13T06:45:14;8.02;;;6.25;;
30515;SDS011;17297;54.022;10.760;2023-02-13T06:47:43;7.30;;;5.80;;
30515;SDS011;17297;54.022;10.760;2023-02-13T06:50:10;7.07;;;4.60;;
30515;SDS011;17297;54.022;10.760;2023-02-13T06:52:36;6.22;;;4.72;;
30515;SDS011;17297;54.022;10.760;2023-02-13T06:55:02;8.02;;;5.85;;
30515;SDS011;17297;54.022;10.760;2023-02-13T06:57:29;7.65;;;4.82;;
30515;SDS011;17297;54.022;10.760;2023-02-13T06:59:57;8.27;;;5.13;;
30515;SDS011;17297;54.022;10.760;2023-02-13T07:02:23;6.55;;;5.22;;
30515;SDS011;17297;54.022;10.760;2023-02-13T07:04:48;6.97;;;5.22;;
30515;SDS011;17297;54.022;10.760;2023-02-13T07:07:14;8.50;;;5.38;;
30515;SDS011;17297;54.022;10.760;2023-02-13T07:09:39;8.95;;;5.68;;
30515;SDS011;17297;54.022;10.760;2023-02-13T07:12:05;9.60;;;6.22;;
30515;SDS011;17297;54.022;10.760;2023-02-13T07:14:31;8.00;;;5.80;;
30515;SDS011;17297;54.022;10.760;2023-02-13T07:16:56;8.23;;;5.63;;
30515;SDS011;17297;54.022;10.760;2023-02-13T07:19:22;7.68;;;5.28;;
30515;SDS011;17297;54.022;10.760;2023-02-13T07:21:47;9.15;;;5.55;;
30515;SDS011;17297;54.022;10.760;2023-02-13T07:24:12;8.27;;;6.30;;
30515;SDS011;17297;54.022;10.760;2023-02-13T07:26:38;7.95;;;6.20;;
30515;SDS011;17297;54.022;10.760;2023-02-13T07:29:03;8.05;;;5.90;;
30515;SDS011;17297;54.022;10.760;2023-02-13T07:31:31;9.27;;;6.65;;
30515;SDS011;17297;54.022;10.760;2023-02-13T07:33:58;9.30;;;6.15;;
30515;SDS011;17297;54.022;10.760;2023-02-13T07:36:24;10.15;;;6.35;;
30515;SDS011;17297;54.022;10.760;2023-02-13T07:38:50;8.80;;;6.45;;
30515;SDS011;17297;54.022;10.760;2023-02-13T07:41:15;9.23;;;6.28;;
30515;SDS011;17297;54.022;10.760;2023-02-13T07:43:40;9.75;;;6.80;;
30515;SDS011;17297;54.022;10.760;2023-02-13T07:46:06;8.60;;;6.13;;
30515;SDS011;17297;54.022;10.760;2023-02-13T07:48:31;8.68;;;5.63;;
30515;SDS011;17297;54.022;10.760;2023-02-13T07:51:03;8.68;;;5.43;;
30515;SDS011;17297;54.022;10.760;2023-02-13T07:53:29;7.07;;;5.40;;
30515;SDS011;17297;54.022;10.760;2023-02-13T07:55:55;8.00;;;5.40;;
30515;SDS011;17297;54.022;10.760;2023-02-13T07:58:21;9.57;;;6.07;;
30515;SDS011;17297;54.022;10.760;2023-02-13T08:00:46;12.52;;;6.55;;
30515;SDS011;17297;54.022;10.760;2023-02-13T08:03:12;9.90;;;6.88;;
30515;SDS011;17297;54.022;10.760;2023-02-13T08:05:37;9.68;;;6.80;;
30515;SDS011;17297;54.022;10.760;2023-02-13T08:08:04;8.43;;;5.88;;
30515;SDS011;17297;54.022;10.760;2023-02-13T08:10:29;9.43;;;6.75;;
30515;SDS011;17297;54.022;10.760;2023-02-13T08:13:13;9.25;;;5.60;;
30515;SDS011;17297;54.022;10.760;2023-02-13T08:15:40;8.48;;;5.40;;
30515;SDS011;17297;54.022;10.760;2023-02-13T08:18:08;8.40;;;6.47;;
30515;SDS011;17297;54.022;10.760;2023-02-13T08:20:34;8.95;;;6.03;;
30515;SDS011;17297;54.022;10.760;2023-02-13T08:23:03;8.90;;;5.97;;
30515;SDS011;17297;54.022;10.760;2023-02-13T08:25:30;7.80;;;5.38;;
30515;SDS011;17297;54.022;10.760;2023-02-13T08:27:58;8.38;;;5.68;;
30515;SDS011;17297;54.022;10.760;2023-02-13T08:30:24;6.97;;;5.22;;
30515;SDS011;17297;54.022;10.760;2023-02-13T08:32:49;6.72;;;4.85;;
30515;SDS011;17297;54.022;10.760;2023-02-13T08:35:14;9.90;;;5.85;;
30515;SDS011;17297;54.022;10.760;2023-02-13T08:37:39;7.30;;;4.93;;
30515;SDS011;17297;54.022;10.760;2023-02-13T08:40:05;6.13;;;4.13;;
30515;SDS011;17297;54.022;10.760;2023-02-13T08:42:34;7.00;;;5.15;;
30515;SDS011;17297;54.022;10.760;2023-02-13T08:45:00;6.75;;;4.93;;
30515;SDS011;17297;54.022;10.760;2023-02-13T08:47:25;6.65;;;4.50;;
30515;SDS011;17297;54.022;10.760;2023-02-13T08:49:51;7.63;;;4.30;;
30515;SDS011;17297;54.022;10.760;2023-02-13T08:52:16;5.55;;;4.40;;
30515;SDS011;17297;54.022;10.760;2023-02-13T08:54:41;6.50;;;4.82;;
30515;SDS011;17297;54.022;10.760;2023-02-13T08:57:07;5.25;;;4.03;;
30515;SDS011;17297;54.022;10.760;2023-02-13T08:59:32;5.32;;;3.72;;
30515;SDS011;17297;54.022;10.760;2023-02-13T09:01:58;6.07;;;4.22;;
30515;SDS011;17297;54.022;10.760;2023-02-13T09:04:26;5.88;;;4.28;;
30515;SDS011;17297;54.022;10.760;2023-02-13T09:06:52;5.25;;;3.80;;
30515;SDS011;17297;54.022;10.760;2023-02-13T09:09:17;4.45;;;3.40;;
30515;SDS011;17297;54.022;10.760;2023-02-13T09:11:43;3.80;;;3.20;;
30515;SDS011;17297;54.022;10.760;2023-02-13T09:14:08;6.45;;;3.92;;
30515;SDS011;17297;54.022;10.760;2023-02-13T09:16:34;5.80;;;3.28;;
30515;SDS011;17297;54.022;10.760;2023-02-13T09:18:59;4.95;;;3.55;;
30515;SDS011;17297;54.022;10.760;2023-02-13T09:21:25;8.70;;;3.67;;
30515;SDS011;17297;54.022;10.760;2023-02-13T09:23:50;5.28;;;4.25;;
30515;SDS011;17297;54.022;10.760;2023-02-13T09:26:17;4.88;;;4.38;;
30515;SDS011;17297;54.022;10.760;2023-02-13T09:28:42;6.10;;;3.55;;
30515;SDS011;17297;54.022;10.760;2023-02-13T09:31:09;5.00;;;3.33;;
30515;SDS011;17297;54.022;10.760;2023-02-13T09:33:39;4.80;;;3.38;;
30515;SDS011;17297;54.022;10.760;2023-02-13T09:36:05;3.67;;;3.33;;
30515;SDS011;17297;54.022;10.760;2023-02-13T09:38:32;7.18;;;3.53;;
30515;SDS011;17297;54.022;10.760;2023-02-13T09:40:59;4.45;;;3.45;;
30515;SDS011;17297;54.022;10.760;2023-02-13T09:43:33;4.10;;;3.13;;
30515;SDS011;17297;54.022;10.760;2023-02-13T09:48:38;4.55;;;3.50;;
30515;SDS011;17297;54.022;10.760;2023-02-13T09:51:08;4.05;;;3.55;;
30515;SDS011;17297;54.022;10.760;2023-02-13T09:53:40;3.65;;;3.10;;
30515;SDS011;17297;54.022;10.760;2023-02-13T09:56:20;4.60;;;3.38;;
30515;SDS011;17297;54.022;10.760;2023-02-13T09:58:58;4.38;;;3.17;;
30515;SDS011;17297;54.022;10.760;2023-02-13T10:04:07;4.18;;;3.28;;
30515;SDS011;17297;54.022;10.760;2023-02-13T10:06:46;4.75;;;3.38;;
30515;SDS011;17297;54.022;10.760;2023-02-13T10:09:22;4.68;;;4.15;;
30515;SDS011;17297;54.022;10.760;2023-02-13T10:15:01;4.35;;;3.33;;
30515;SDS011;17297;54.022;10.760;2023-02-13T10:17:38;5.03;;;4.07;;
30515;SDS011;17297;54.022;10.760;2023-02-13T10:22:47;5.47;;;4.07;;
30515;SDS011;17297;54.022;10.760;2023-02-13T10:25:17;6.28;;;3.92;;
30515;SDS011;17297;54.022;10.760;2023-02-13T10:27:58;4.80;;;3.85;;
30515;SDS011;17297;54.022;10.760;2023-02-13T10:30:31;5.22;;;3.75;;
30515;SDS011;17297;54.022;10.760;2023-02-13T10:33:06;6.18;;;3.67;;
30515;SDS011;17297;54.022;10.760;2023-02-13T10:35:51;4.68;;;3.65;;
30515;SDS011;17297;54.022;10.760;2023-02-13T10:38:27;5.55;;;3.20;;
30515;SDS011;17297;54.022;10.760;2023-02-13T10:41:02;5.57;;;4.45;;
30515;SDS011;17297;54.022;10.760;2023-02-13T10:43:29;4.88;;;4.38;;
30515;SDS011;17297;54.022;10.760;2023-02-13T10:46:21;4.75;;;3.75;;
30515;SDS011;17297;54.022;10.760;2023-02-13T10:52:00;4.50;;;3.55;;
30515;SDS011;17297;54.022;10.760;2023-02-13T11:02:49;4.75;;;4.25;;
30515;SDS011;17297;54.022;10.760;2023-02-13T11:05:18;3.80;;;3.22;;
30515;SDS011;17297;54.022;10.760;2023-02-13T11:07:47;5.22;;;3.95;;
30515;SDS011;17297;54.022;10.760;2023-02-13T11:10:21;5.90;;;4.07;;
30515;SDS011;17297;54.022;10.760;2023-02-13T11:12:48;4.63;;;3.80;;
30515;SDS011;17297;54.022;10.760;2023-02-13T11:15:22;5.75;;;4.47;;
30515;SDS011;17297;54.022;10.760;2023-02-13T11:26:11;6.05;;;4.85;;
30515;SDS011;17297;54.022;10.760;2023-02-13T11:28:47;4.30;;;3.90;;
30515;SDS011;17297;54.022;10.760;2023-02-13T11:33:47;5.25;;;4.38;;
30515;SDS011;17297;54.022;10.760;2023-02-13T11:36:13;4.85;;;4.32;;
30515;SDS011;17297;54.022;10.760;2023-02-13T11:38:41;7.40;;;4.97;;
30515;SDS011;17297;54.022;10.760;2023-02-13T11:41:11;4.55;;;3.88;;
30515;SDS011;17297;54.022;10.760;2023-02-13T11:43:46;4.75;;;3.92;;
30515;SDS011;17297;54.022;10.760;2023-02-13T11:46:16;6.70;;;4.15;;
30515;SDS011;17297;54.022;10.760;2023-02-13T11:49:03;8.10;;;5.75;;
30515;SDS011;17297;54.022;10.760;2023-02-13T11:51:37;6.18;;;4.35;;
30515;SDS011;17297;54.022;10.760;2023-02-13T11:54:05;4.60;;;4.20;;
30515;SDS011;17297;54.022;10.760;2023-02-13T11:56:49;5.90;;;4.40;;
30515;SDS011;17297;54.022;10.760;2023-02-13T12:01:42;5.97;;;4.20;;
30515;SDS011;17297;54.022;10.760;2023-02-13T12:04:14;6.35;;;4.60;;
30515;SDS011;17297;54.022;10.760;2023-02-13T12:11:54;6.28;;;4.10;;
30515;SDS011;17297;54.022;10.760;2023-02-13T12:14:26;6.15;;;4.07;;
30515;SDS011;17297;54.022;10.760;2023-02-13T12:17:11;5.88;;;4.40;;
30515;SDS011;17297;54.022;10.760;2023-02-13T12:19:46;7.88;;;4.47;;
30515;SDS011;17297;54.022;10.760;2023-02-13T12:28:06;9.50;;;5.28;;
30515;SDS011;17297;54.022;10.760;2023-02-13T12:36:33;9.18;;;6.05;;
30515;SDS011;17297;54.022;10.760;2023-02-13T12:42:14;8.85;;;5.63;;
30515;SDS011;17297;54.022;10.760;2023-02-13T12:45:09;8.38;;;6.03;;
30515;SDS011;17297;54.022;10.760;2023-02-13T12:53:18;8.65;;;6.05;;
30515;SDS011;17297;54.022;10.760;2023-02-13T13:01:13;10.05;;;6.13;;
30515;SDS011;17297;54.022;10.760;2023-02-13T13:04:14;10.18;;;6.15;;
30515;SDS011;17297;54.022;10.760;2023-02-13T13:07:26;9.55;;;6.85;;
30515;SDS011;17297;54.022;10.760;2023-02-13T13:10:04;10.57;;;6.15;;
30515;SDS011;17297;54.022;10.760;2023-02-13T13:15:44;10.38;;;5.93;;
30515;SDS011;17297;54.022;10.760;2023-02-13T13:21:25;14.82;;;7.88;;
30515;SDS011;17297;54.022;10.760;2023-02-13T13:24:23;10.93;;;7.05;;
30515;SDS011;17297;54.022;10.760;2023-02-13T13:26:57;10.10;;;7.20;;
30515;SDS011;17297;54.022;10.760;2023-02-13T13:32:05;12.07;;;8.25;;
30515;SDS011;17297;54.022;10.760;2023-02-13T13:34:33;12.90;;;7.93;;
30515;SDS011;17297;54.022;10.760;2023-02-13T13:39:55;12.60;;;7.45;;
30515;SDS011;17297;54.022;10.760;2023-02-13T13:42:37;13.60;;;9.07;;
30515;SDS011;17297;54.022;10.760;2023-02-13T13:50:39;13.45;;;7.78;;
30515;SDS011;17297;54.022;10.760;2023-02-13T13:53:15;12.68;;;8.00;;
30515;SDS011;17297;54.022;10.760;2023-02-13T14:03:59;13.90;;;9.27;;
30515;SDS011;17297;54.022;10.760;2023-02-13T14:08:59;14.13;;;8.68;;
30515;SDS011;17297;54.022;10.760;2023-02-13T14:14:00;14.65;;;9.20;;
30515;SDS011;17297;54.022;10.760;2023-02-13T14:16:37;12.88;;;8.80;;
30515;SDS011;17297;54.022;10.760;2023-02-13T14:21:49;12.02;;;8.02;;
30515;SDS011;17297;54.022;10.760;2023-02-13T14:24:15;11.75;;;7.50;;
30515;SDS011;17297;54.022;10.760;2023-02-13T14:26:48;13.73;;;8.10;;
30515;SDS011;17297;54.022;10.760;2023-02-13T14:29:24;12.75;;;8.52;;
30515;SDS011;17297;54.022;10.760;2023-02-13T14:34:30;12.75;;;8.45;;
30515;SDS011;17297;54.022;10.760;2023-02-13T14:37:04;12.70;;;8.20;;
30515;SDS011;17297;54.022;10.760;2023-02-13T14:40:08;12.15;;;7.97;;
30515;SDS011;17297;54.022;10.760;2023-02-13T14:42:35;15.02;;;8.82;;
30515;SDS011;17297;54.022;10.760;2023-02-13T14:45:04;13.60;;;8.55;;
30515;SDS011;17297;54.022;10.760;2023-02-13T14:47:48;14.07;;;8.85;;
30515;SDS011;17297;54.022;10.760;2023-02-13T14:50:22;15.68;;;9.13;;
30515;SDS011;17297;54.022;10.760;2023-02-13T14:52:51;11.13;;;8.05;;
30515;SDS011;17297;54.022;10.760;2023-02-13T15:00:32;13.48;;;8.23;;
30515;SDS011;17297;54.022;10.760;2023-02-13T15:03:01;12.07;;;8.15;;
30515;SDS011;17297;54.022;10.760;2023-02-13T15:05:32;10.98;;;9.07;;
30515;SDS011;17297;54.022;10.760;2023-02-13T15:08:04;13.27;;;9.70;;
30515;SDS011;17297;54.022;10.760;2023-02-13T15:10:44;11.77;;;9.15;;
30515;SDS011;17297;54.022;10.760;2023-02-13T15:13:20;13.75;;;9.70;;
30515;SDS011;17297;54.022;10.760;2023-02-13T15:15:59;13.10;;;8.50;;
30515;SDS011;17297;54.022;10.760;2023-02-13T15:18:29;14.38;;;9.27;;
30515;SDS011;17297;54.022;10.760;2023-02-13T15:21:05;15.40;;;9.00;;
30515;SDS011;17297;54.022;10.760;2023-02-13T15:23:38;15.50;;;9.75;;
30515;SDS011;17297;54.022;10.760;2023-02-13T15:26:05;14.85;;;9.23;;
30515;SDS011;17297;54.022;10.760;2023-02-13T15:28:32;16.02;;;9.10;;
30515;SDS011;17297;54.022;10.760;2023-02-13T15:33:33;15.80;;;9.43;;
30515;SDS011;17297;54.022;10.760;2023-02-13T15:36:16;13.18;;;7.80;;
30515;SDS011;17297;54.022;10.760;2023-02-13T15:38:46;16.20;;;8.98;;
30515;SDS011;17297;54.022;10.760;2023-02-13T15:41:23;13.10;;;8.82;;
30515;SDS011;17297;54.022;10.760;2023-02-13T15:43:57;13.57;;;8.40;;
30515;SDS011;17297;54.022;10.760;2023-02-13T15:46:24;15.73;;;10.05;;
30515;SDS011;17297;54.022;10.760;2023-02-13T15:48:52;17.92;;;10.32;;
30515;SDS011;17297;54.022;10.760;2023-02-13T15:51:19;16.10;;;9.02;;
30515;SDS011;17297;54.022;10.760;2023-02-13T15:54:06;14.02;;;8.90;;
30515;SDS011;17297;54.022;10.760;2023-02-13T15:56:47;13.60;;;8.85;;
30515;SDS011;17297;54.022;10.760;2023-02-13T15:59:13;16.55;;;9.50;;
30515;SDS011;17297;54.022;10.760;2023-02-13T16:01:40;13.80;;;8.88;;
30515;SDS011;17297;54.022;10.760;2023-02-13T16:04:11;14.23;;;8.70;;
30515;SDS011;17297;54.022;10.760;2023-02-13T16:06:39;14.38;;;9.00;;
30515;SDS011;17297;54.022;10.760;2023-02-13T16:09:20;13.45;;;8.35;;
30515;SDS011;17297;54.022;10.760;2023-02-13T16:12:15;14.82;;;9.45;;
30515;SDS011;17297;54.022;10.760;2023-02-13T16:14:58;16.30;;;9.35;;
30515;SDS011;17297;54.022;10.760;2023-02-13T16:17:34;17.42;;;9.90;;
30515;SDS011;17297;54.022;10.760;2023-02-13T16:22:33;13.95;;;8.32;;
30515;SDS011;17297;54.022;10.760;2023-02-13T16:27:35;15.30;;;9.93;;
30515;SDS011;17297;54.022;10.760;2023-02-13T16:30:06;16.45;;;10.20;;
30515;SDS011;17297;54.022;10.760;2023-02-13T16:32:45;14.52;;;8.65;;
30515;SDS011;17297;54.022;10.760;2023-02-13T16:35:27;16.23;;;8.88;;
30515;SDS011;17297;54.022;10.760;2023-02-13T16:37:55;19.05;;;8.90;;
30515;SDS011;17297;54.022;10.760;2023-02-13T16:43:31;15.80;;;8.75;;
30515;SDS011;17297;54.022;10.760;2023-02-13T16:46:10;15.57;;;10.45;;
30515;SDS011;17297;54.022;10.760;2023-02-13T16:48:39;16.38;;;8.93;;
30515;SDS011;17297;54.022;10.760;2023-02-13T16:51:05;17.55;;;9.88;;
30515;SDS011;17297;54.022;10.760;2023-02-13T16:53:31;15.60;;;9.82;;
30515;SDS011;17297;54.022;10.760;2023-02-13T16:55:58;14.10;;;9.02;;
30515;SDS011;17297;54.022;10.760;2023-02-13T16:58:25;14.80;;;9.63;;
30515;SDS011;17297;54.022;10.760;2023-02-13T17:00:51;15.60;;;8.88;;
30515;SDS011;17297;54.022;10.760;2023-02-13T17:03:17;17.13;;;9.98;;
30515;SDS011;17297;54.022;10.760;2023-02-13T17:05:42;15.35;;;9.07;;
30515;SDS011;17297;54.022;10.760;2023-02-13T17:08:08;15.13;;;9.13;;
30515;SDS011;17297;54.022;10.760;2023-02-13T17:10:34;15.68;;;8.13;;
30515;SDS011;17297;54.022;10.760;2023-02-13T17:15:32;12.30;;;8.48;;
30515;SDS011;17297;54.022;10.760;2023-02-13T17:17:58;14.80;;;8.77;;
30515;SDS011;17297;54.022;10.760;2023-02-13T17:20:25;16.88;;;9.80;;
30515;SDS011;17297;54.022;10.760;2023-02-13T17:22:53;14.38;;;8.98;;
30515;SDS011;17297;54.022;10.760;2023-02-13T17:25:21;14.45;;;8.45;;
30515;SDS011;17297;54.022;10.760;2023-02-13T17:27:59;16.77;;;9.43;;
30515;SDS011;17297;54.022;10.760;2023-02-13T17:32:58;12.13;;;6.88;;
30515;SDS011;17297;54.022;10.760;2023-02-13T17:35:27;15.88;;;8.63;;
30515;SDS011;17297;54.022;10.760;2023-02-13T17:37:52;15.35;;;9.73;;
30515;SDS011;17297;54.022;10.760;2023-02-13T17:40:19;14.77;;;8.73;;
30515;SDS011;17297;54.022;10.760;2023-02-13T17:42:46;16.60;;;9.65;;